sensor_id;sensor_type;location;lat;lon;timestamp;P1;durP1;ratioP1;P2;durP2;ratioP2
68680;SDS011;55836;49.858;6.756;2024-03-06T00:00:16;2.27;;;1.50;;
68680;SDS011;55836;49.858;6.756;2024-03-06T00:02:42;4.63;;;1.87;;
68680;SDS011;55836;49.858;6.756;2024-03-06T00:05:08;2.87;;;1.67;;
68680;SDS011;55836;49.858;6.756;2024-03-06T00:07:34;2.27;;;1.67;;
68680;SDS011;55836;49.858;6.756;2024-03-06T00:10:00;2.40;;;1.90;;
68680;SDS011;55836;49.858;6.756;2024-03-06T00:12:26;2.63;;;1.40;;
68680;SDS011;55836;49.858;6.756;2024-03-06T00:14:52;1.70;;;1.53;;
68680;SDS011;55836;49.858;6.756;2024-03-06T00:17:18;1.80;;;1.40;;
68680;SDS011;55836;49.858;6.756;2024-03-06T00:19:44;1.67;;;1.57;;
68680;SDS011;55836;49.858;6.756;2024-03-06T00:22:10;2.20;;;1.93;;
68680;SDS011;55836;49.858;6.756;2024-03-06T00:24:36;1.63;;;1.50;;
68680;SDS011;55836;49.858;6.756;2024-03-06T00:27:02;3.70;;;1.60;;
68680;SDS011;55836;49.858;6.756;2024-03-06T00:29:30;1.63;;;1.53;;
68680;SDS011;55836;49.858;6.756;2024-03-06T00:31:56;2.00;;;1.43;;
68680;SDS011;55836;49.858;6.756;2024-03-06T00:34:22;1.57;;;1.47;;
68680;SDS011;55836;49.858;6.756;2024-03-06T00:36:48;1.63;;;1.47;;
68680;SDS011;55836;49.858;6.756;2024-03-06T00:39:14;1.93;;;1.73;;
68680;SDS011;55836;49.858;6.756;2024-03-06T00:41:41;2.57;;;1.60;;
68680;SDS011;55836;49.858;6.756;2024-03-06T00:44:07;3.03;;;1.93;;
68680;SDS011;55836;49.858;6.756;2024-03-06T00:46:33;1.50;;;1.40;;
68680;SDS011;55836;49.858;6.756;2024-03-06T00:48:59;1.77;;;1.20;;
68680;SDS011;55836;49.858;6.756;2024-03-06T00:51:25;1.37;;;1.27;;
68680;SDS011;55836;49.858;6.756;2024-03-06T00:53:51;2.40;;;2.00;;
68680;SDS011;55836;49.858;6.756;2024-03-06T00:56:17;1.70;;;1.60;;
68680;SDS011;55836;49.858;6.756;2024-03-06T00:58:43;1.93;;;1.60;;
68680;SDS011;55836;49.858;6.756;2024-03-06T01:01:13;1.97;;;1.53;;
68680;SDS011;55836;49.858;6.756;2024-03-06T01:03:39;1.93;;;1.60;;
68680;SDS011;55836;49.858;6.756;2024-03-06T01:06:05;2.00;;;1.50;;
68680;SDS011;55836;49.858;6.756;2024-03-06T01:08:31;2.70;;;1.67;;
68680;SDS011;55836;49.858;6.756;2024-03-06T01:10:57;1.73;;;1.63;;
68680;SDS011;55836;49.858;6.756;2024-03-06T01:13:23;2.50;;;1.70;;
68680;SDS011;55836;49.858;6.756;2024-03-06T01:15:49;2.20;;;1.40;;
68680;SDS011;55836;49.858;6.756;2024-03-06T01:18:15;1.80;;;1.60;;
68680;SDS011;55836;49.858;6.756;2024-03-06T01:20:41;1.60;;;1.50;;
68680;SDS011;55836;49.858;6.756;2024-03-06T01:23:07;1.60;;;1.40;;
68680;SDS011;55836;49.858;6.756;2024-03-06T01:25:33;1.93;;;1.43;;
68680;SDS011;55836;49.858;6.756;2024-03-06T01:27:59;1.60;;;1.30;;
68680;SDS011;55836;49.858;6.756;2024-03-06T01:30:25;2.13;;;1.67;;
68680;SDS011;55836;49.858;6.756;2024-03-06T01:32:51;1.83;;;1.67;;
68680;SDS011;55836;49.858;6.756;2024-03-06T01:35:17;1.70;;;1.60;;
68680;SDS011;55836;49.858;6.756;2024-03-06T01:37:44;3.73;;;2.03;;
68680;SDS011;55836;49.858;6.756;2024-03-06T01:40:10;3.93;;;1.80;;
68680;SDS011;55836;49.858;6.756;2024-03-06T01:42:37;1.50;;;1.40;;
68680;SDS011;55836;49.858;6.756;2024-03-06T01:45:03;2.37;;;1.80;;
68680;SDS011;55836;49.858;6.756;2024-03-06T01:47:29;2.07;;;1.60;;
68680;SDS011;55836;49.858;6.756;2024-03-06T01:49:56;3.10;;;1.87;;
68680;SDS011;55836;49.858;6.756;2024-03-06T01:52:22;2.63;;;1.87;;
68680;SDS011;55836;49.858;6.756;2024-03-06T01:54:48;2.63;;;1.50;;
68680;SDS011;55836;49.858;6.756;2024-03-06T01:57:15;2.70;;;1.60;;
68680;SDS011;55836;49.858;6.756;2024-03-06T01:59:42;2.13;;;1.40;;
68680;SDS011;55836;49.858;6.756;2024-03-06T02:02:09;2.13;;;1.83;;
68680;SDS011;55836;49.858;6.756;2024-03-06T02:04:36;3.27;;;2.00;;
68680;SDS011;55836;49.858;6.756;2024-03-06T02:07:03;1.47;;;1.10;;
68680;SDS011;55836;49.858;6.756;2024-03-06T02:09:29;1.80;;;1.33;;
68680;SDS011;55836;49.858;6.756;2024-03-06T02:11:55;1.77;;;1.57;;
68680;SDS011;55836;49.858;6.756;2024-03-06T02:14:21;1.57;;;1.47;;
68680;SDS011;55836;49.858;6.756;2024-03-06T02:16:47;3.00;;;1.77;;
68680;SDS011;55836;49.858;6.756;2024-03-06T02:19:13;2.60;;;1.90;;
68680;SDS011;55836;49.858;6.756;2024-03-06T02:21:39;1.93;;;1.77;;
68680;SDS011;55836;49.858;6.756;2024-03-06T02:24:05;4.73;;;2.20;;
68680;SDS011;55836;49.858;6.756;2024-03-06T02:26:33;2.30;;;2.10;;
68680;SDS011;55836;49.858;6.756;2024-03-06T02:28:59;5.07;;;2.00;;
68680;SDS011;55836;49.858;6.756;2024-03-06T02:31:25;2.20;;;2.07;;
68680;SDS011;55836;49.858;6.756;2024-03-06T02:33:51;1.83;;;1.70;;
68680;SDS011;55836;49.858;6.756;2024-03-06T02:36:17;2.57;;;2.27;;
68680;SDS011;55836;49.858;6.756;2024-03-06T02:38:44;2.07;;;1.87;;
68680;SDS011;55836;49.858;6.756;2024-03-06T02:41:10;1.93;;;1.70;;
68680;SDS011;55836;49.858;6.756;2024-03-06T02:43:40;8.83;;;3.40;;
68680;SDS011;55836;49.858;6.756;2024-03-06T02:46:07;4.50;;;2.83;;
68680;SDS011;55836;49.858;6.756;2024-03-06T02:48:33;2.20;;;2.00;;
68680;SDS011;55836;49.858;6.756;2024-03-06T02:50:59;4.07;;;1.90;;
68680;SDS011;55836;49.858;6.756;2024-03-06T02:53:25;2.23;;;1.80;;
68680;SDS011;55836;49.858;6.756;2024-03-06T02:55:52;2.17;;;1.60;;
68680;SDS011;55836;49.858;6.756;2024-03-06T02:58:18;2.23;;;1.73;;
68680;SDS011;55836;49.858;6.756;2024-03-06T03:00:44;3.03;;;2.17;;
68680;SDS011;55836;49.858;6.756;2024-03-06T03:03:10;2.50;;;2.27;;
68680;SDS011;55836;49.858;6.756;2024-03-06T03:05:37;2.77;;;2.30;;
68680;SDS011;55836;49.858;6.756;2024-03-06T03:08:04;2.40;;;2.20;;
68680;SDS011;55836;49.858;6.756;2024-03-06T03:10:30;3.50;;;1.93;;
68680;SDS011;55836;49.858;6.756;2024-03-06T03:12:56;2.80;;;1.97;;
68680;SDS011;55836;49.858;6.756;2024-03-06T03:15:22;3.07;;;1.93;;
68680;SDS011;55836;49.858;6.756;2024-03-06T03:17:48;2.50;;;1.97;;
68680;SDS011;55836;49.858;6.756;2024-03-06T03:20:14;2.60;;;2.27;;
68680;SDS011;55836;49.858;6.756;2024-03-06T03:22:42;1.70;;;1.57;;
68680;SDS011;55836;49.858;6.756;2024-03-06T03:25:08;2.47;;;1.80;;
68680;SDS011;55836;49.858;6.756;2024-03-06T03:27:36;3.33;;;1.83;;
68680;SDS011;55836;49.858;6.756;2024-03-06T03:30:02;2.10;;;1.40;;
68680;SDS011;55836;49.858;6.756;2024-03-06T03:32:28;2.20;;;1.70;;
68680;SDS011;55836;49.858;6.756;2024-03-06T03:34:54;2.27;;;1.40;;
68680;SDS011;55836;49.858;6.756;2024-03-06T03:37:20;1.60;;;1.50;;
68680;SDS011;55836;49.858;6.756;2024-03-06T03:39:47;2.10;;;1.80;;
68680;SDS011;55836;49.858;6.756;2024-03-06T03:42:12;3.57;;;1.80;;
68680;SDS011;55836;49.858;6.756;2024-03-06T03:44:38;3.23;;;2.57;;
68680;SDS011;55836;49.858;6.756;2024-03-06T03:47:05;2.50;;;2.30;;
68680;SDS011;55836;49.858;6.756;2024-03-06T03:49:31;1.90;;;1.70;;
68680;SDS011;55836;49.858;6.756;2024-03-06T03:51:59;2.30;;;2.10;;
68680;SDS011;55836;49.858;6.756;2024-03-06T03:54:25;2.77;;;1.80;;
68680;SDS011;55836;49.858;6.756;2024-03-06T03:56:51;7.70;;;3.37;;
68680;SDS011;55836;49.858;6.756;2024-03-06T03:59:18;4.30;;;3.27;;
68680;SDS011;55836;49.858;6.756;2024-03-06T04:01:47;4.63;;;3.40;;
68680;SDS011;55836;49.858;6.756;2024-03-06T04:04:13;5.17;;;2.97;;
68680;SDS011;55836;49.858;6.756;2024-03-06T04:06:39;3.43;;;2.63;;
68680;SDS011;55836;49.858;6.756;2024-03-06T04:09:05;4.70;;;2.50;;
68680;SDS011;55836;49.858;6.756;2024-03-06T04:11:34;3.87;;;2.70;;
68680;SDS011;55836;49.858;6.756;2024-03-06T04:14:02;4.23;;;2.80;;
68680;SDS011;55836;49.858;6.756;2024-03-06T04:16:28;3.10;;;2.63;;
68680;SDS011;55836;49.858;6.756;2024-03-06T04:18:54;2.83;;;2.40;;
68680;SDS011;55836;49.858;6.756;2024-03-06T04:21:20;4.33;;;2.70;;
68680;SDS011;55836;49.858;6.756;2024-03-06T04:23:47;3.77;;;2.90;;
68680;SDS011;55836;49.858;6.756;2024-03-06T04:26:13;4.17;;;2.47;;
68680;SDS011;55836;49.858;6.756;2024-03-06T04:28:39;3.77;;;3.00;;
68680;SDS011;55836;49.858;6.756;2024-03-06T04:31:05;3.23;;;2.67;;
68680;SDS011;55836;49.858;6.756;2024-03-06T04:33:31;3.00;;;2.50;;
68680;SDS011;55836;49.858;6.756;2024-03-06T04:35:57;2.83;;;2.30;;
68680;SDS011;55836;49.858;6.756;2024-03-06T04:38:23;3.97;;;2.47;;
68680;SDS011;55836;49.858;6.756;2024-03-06T04:40:49;2.83;;;2.20;;
68680;SDS011;55836;49.858;6.756;2024-03-06T04:43:15;4.40;;;3.27;;
68680;SDS011;55836;49.858;6.756;2024-03-06T04:45:41;4.83;;;3.23;;
68680;SDS011;55836;49.858;6.756;2024-03-06T04:48:07;3.80;;;3.07;;
68680;SDS011;55836;49.858;6.756;2024-03-06T04:50:33;4.60;;;3.13;;
68680;SDS011;55836;49.858;6.756;2024-03-06T04:52:59;4.97;;;3.30;;
68680;SDS011;55836;49.858;6.756;2024-03-06T04:55:25;3.30;;;2.60;;
68680;SDS011;55836;49.858;6.756;2024-03-06T04:57:52;4.37;;;3.17;;
68680;SDS011;55836;49.858;6.756;2024-03-06T05:00:18;4.40;;;3.30;;
68680;SDS011;55836;49.858;6.756;2024-03-06T05:02:44;4.10;;;3.07;;
68680;SDS011;55836;49.858;6.756;2024-03-06T05:05:10;3.47;;;2.83;;
68680;SDS011;55836;49.858;6.756;2024-03-06T05:07:36;5.07;;;3.60;;
68680;SDS011;55836;49.858;6.756;2024-03-06T05:10:02;3.90;;;3.03;;
68680;SDS011;55836;49.858;6.756;2024-03-06T05:12:28;3.63;;;2.90;;
68680;SDS011;55836;49.858;6.756;2024-03-06T05:14:55;3.40;;;3.10;;
68680;SDS011;55836;49.858;6.756;2024-03-06T05:17:21;4.10;;;2.97;;
68680;SDS011;55836;49.858;6.756;2024-03-06T05:19:47;4.47;;;3.60;;
68680;SDS011;55836;49.858;6.756;2024-03-06T05:22:17;5.30;;;2.77;;
68680;SDS011;55836;49.858;6.756;2024-03-06T05:24:43;4.63;;;2.90;;
68680;SDS011;55836;49.858;6.756;2024-03-06T05:27:09;3.37;;;2.80;;
68680;SDS011;55836;49.858;6.756;2024-03-06T05:29:38;3.97;;;2.30;;
68680;SDS011;55836;49.858;6.756;2024-03-06T05:32:04;7.80;;;3.63;;
68680;SDS011;55836;49.858;6.756;2024-03-06T05:34:32;4.43;;;3.30;;
68680;SDS011;55836;49.858;6.756;2024-03-06T05:36:58;6.50;;;3.33;;
68680;SDS011;55836;49.858;6.756;2024-03-06T05:39:24;3.20;;;2.90;;
68680;SDS011;55836;49.858;6.756;2024-03-06T05:41:50;3.63;;;2.60;;
68680;SDS011;55836;49.858;6.756;2024-03-06T05:44:17;3.00;;;2.67;;
68680;SDS011;55836;49.858;6.756;2024-03-06T05:46:43;2.67;;;2.33;;
68680;SDS011;55836;49.858;6.756;2024-03-06T05:49:09;3.87;;;2.47;;
68680;SDS011;55836;49.858;6.756;2024-03-06T05:51:35;5.57;;;2.20;;
68680;SDS011;55836;49.858;6.756;2024-03-06T05:54:01;2.53;;;1.93;;
68680;SDS011;55836;49.858;6.756;2024-03-06T05:56:29;2.97;;;2.53;;
68680;SDS011;55836;49.858;6.756;2024-03-06T05:58:55;3.50;;;2.30;;
68680;SDS011;55836;49.858;6.756;2024-03-06T06:01:21;2.63;;;1.90;;
68680;SDS011;55836;49.858;6.756;2024-03-06T06:03:50;3.77;;;2.00;;
68680;SDS011;55836;49.858;6.756;2024-03-06T06:06:16;1.93;;;1.83;;
68680;SDS011;55836;49.858;6.756;2024-03-06T06:08:44;3.60;;;2.37;;
68680;SDS011;55836;49.858;6.756;2024-03-06T06:11:10;1.90;;;1.80;;
68680;SDS011;55836;49.858;6.756;2024-03-06T06:13:36;1.77;;;1.60;;
68680;SDS011;55836;49.858;6.756;2024-03-06T06:16:02;4.80;;;2.40;;
68680;SDS011;55836;49.858;6.756;2024-03-06T06:18:28;2.10;;;1.77;;
68680;SDS011;55836;49.858;6.756;2024-03-06T06:20:56;2.33;;;2.13;;
68680;SDS011;55836;49.858;6.756;2024-03-06T06:23:22;2.63;;;2.43;;
68680;SDS011;55836;49.858;6.756;2024-03-06T06:25:48;4.77;;;2.70;;
68680;SDS011;55836;49.858;6.756;2024-03-06T06:28:14;6.60;;;2.77;;
68680;SDS011;55836;49.858;6.756;2024-03-06T06:30:40;3.37;;;2.97;;
68680;SDS011;55836;49.858;6.756;2024-03-06T06:33:06;3.87;;;2.67;;
68680;SDS011;55836;49.858;6.756;2024-03-06T06:35:33;6.73;;;4.50;;
68680;SDS011;55836;49.858;6.756;2024-03-06T06:37:59;5.10;;;3.87;;
68680;SDS011;55836;49.858;6.756;2024-03-06T06:40:25;4.27;;;3.27;;
68680;SDS011;55836;49.858;6.756;2024-03-06T06:42:53;3.63;;;3.00;;
68680;SDS011;55836;49.858;6.756;2024-03-06T06:45:19;5.37;;;3.60;;
68680;SDS011;55836;49.858;6.756;2024-03-06T06:47:47;3.60;;;3.00;;
68680;SDS011;55836;49.858;6.756;2024-03-06T06:50:13;5.40;;;3.40;;
68680;SDS011;55836;49.858;6.756;2024-03-06T06:52:39;4.77;;;3.57;;
68680;SDS011;55836;49.858;6.756;2024-03-06T06:55:05;4.90;;;4.10;;
68680;SDS011;55836;49.858;6.756;2024-03-06T06:57:32;5.00;;;3.63;;
68680;SDS011;55836;49.858;6.756;2024-03-06T06:59:58;10.50;;;4.60;;
68680;SDS011;55836;49.858;6.756;2024-03-06T07:02:24;6.90;;;4.47;;
68680;SDS011;55836;49.858;6.756;2024-03-06T07:04:50;4.57;;;3.40;;
68680;SDS011;55836;49.858;6.756;2024-03-06T07:07:16;8.23;;;3.73;;
68680;SDS011;55836;49.858;6.756;2024-03-06T07:09:43;5.23;;;3.20;;
68680;SDS011;55836;49.858;6.756;2024-03-06T07:12:09;7.10;;;4.33;;
68680;SDS011;55836;49.858;6.756;2024-03-06T07:14:35;6.13;;;4.27;;
68680;SDS011;55836;49.858;6.756;2024-03-06T07:17:01;5.47;;;4.00;;
68680;SDS011;55836;49.858;6.756;2024-03-06T07:19:28;4.37;;;3.20;;
68680;SDS011;55836;49.858;6.756;2024-03-06T07:21:54;6.40;;;3.90;;
68680;SDS011;55836;49.858;6.756;2024-03-06T07:24:20;5.30;;;3.60;;
68680;SDS011;55836;49.858;6.756;2024-03-06T07:26:46;7.83;;;3.77;;
68680;SDS011;55836;49.858;6.756;2024-03-06T07:29:12;5.23;;;3.70;;
68680;SDS011;55836;49.858;6.756;2024-03-06T07:31:42;8.13;;;4.03;;
68680;SDS011;55836;49.858;6.756;2024-03-06T07:34:09;4.97;;;3.77;;
68680;SDS011;55836;49.858;6.756;2024-03-06T07:36:35;9.63;;;3.57;;
68680;SDS011;55836;49.858;6.756;2024-03-06T07:39:02;8.60;;;4.17;;
68680;SDS011;55836;49.858;6.756;2024-03-06T07:41:28;11.47;;;5.30;;
68680;SDS011;55836;49.858;6.756;2024-03-06T07:43:54;6.43;;;4.40;;
68680;SDS011;55836;49.858;6.756;2024-03-06T07:46:20;5.60;;;4.07;;
68680;SDS011;55836;49.858;6.756;2024-03-06T07:48:46;6.93;;;4.30;;
68680;SDS011;55836;49.858;6.756;2024-03-06T07:51:12;4.63;;;3.97;;
68680;SDS011;55836;49.858;6.756;2024-03-06T07:53:38;5.43;;;3.93;;
68680;SDS011;55836;49.858;6.756;2024-03-06T07:56:04;4.73;;;3.73;;
68680;SDS011;55836;49.858;6.756;2024-03-06T07:58:30;5.40;;;4.20;;
68680;SDS011;55836;49.858;6.756;2024-03-06T08:00:57;10.37;;;6.10;;
68680;SDS011;55836;49.858;6.756;2024-03-06T08:03:24;4.53;;;3.53;;
68680;SDS011;55836;49.858;6.756;2024-03-06T08:05:53;4.57;;;3.53;;
68680;SDS011;55836;49.858;6.756;2024-03-06T08:08:19;4.97;;;4.10;;
68680;SDS011;55836;49.858;6.756;2024-03-06T08:10:46;4.87;;;3.60;;
68680;SDS011;55836;49.858;6.756;2024-03-06T08:13:12;5.80;;;3.67;;
68680;SDS011;55836;49.858;6.756;2024-03-06T08:15:38;4.83;;;3.67;;
68680;SDS011;55836;49.858;6.756;2024-03-06T08:18:05;6.80;;;4.23;;
68680;SDS011;55836;49.858;6.756;2024-03-06T08:20:31;7.10;;;4.23;;
68680;SDS011;55836;49.858;6.756;2024-03-06T08:22:57;6.03;;;4.53;;
68680;SDS011;55836;49.858;6.756;2024-03-06T08:25:24;5.70;;;3.63;;
68680;SDS011;55836;49.858;6.756;2024-03-06T08:27:50;5.10;;;4.43;;
68680;SDS011;55836;49.858;6.756;2024-03-06T08:30:16;5.00;;;4.00;;
68680;SDS011;55836;49.858;6.756;2024-03-06T08:32:42;4.80;;;3.77;;
68680;SDS011;55836;49.858;6.756;2024-03-06T08:35:09;6.70;;;4.07;;
68680;SDS011;55836;49.858;6.756;2024-03-06T08:37:40;4.90;;;3.70;;
68680;SDS011;55836;49.858;6.756;2024-03-06T08:40:06;7.93;;;4.50;;
68680;SDS011;55836;49.858;6.756;2024-03-06T08:42:35;4.93;;;3.50;;
68680;SDS011;55836;49.858;6.756;2024-03-06T08:45:01;6.23;;;4.40;;
68680;SDS011;55836;49.858;6.756;2024-03-06T08:47:27;5.90;;;4.40;;
68680;SDS011;55836;49.858;6.756;2024-03-06T08:49:53;6.20;;;4.33;;
68680;SDS011;55836;49.858;6.756;2024-03-06T08:52:19;9.53;;;5.30;;
68680;SDS011;55836;49.858;6.756;2024-03-06T08:54:46;7.80;;;5.13;;
68680;SDS011;55836;49.858;6.756;2024-03-06T08:57:12;7.03;;;4.80;;
68680;SDS011;55836;49.858;6.756;2024-03-06T08:59:38;7.77;;;5.37;;
68680;SDS011;55836;49.858;6.756;2024-03-06T09:02:13;10.03;;;5.50;;
68680;SDS011;55836;49.858;6.756;2024-03-06T09:04:40;7.07;;;5.07;;
68680;SDS011;55836;49.858;6.756;2024-03-06T09:07:06;7.27;;;5.60;;
68680;SDS011;55836;49.858;6.756;2024-03-06T09:09:33;7.10;;;5.30;;
68680;SDS011;55836;49.858;6.756;2024-03-06T09:12:00;8.80;;;5.27;;
68680;SDS011;55836;49.858;6.756;2024-03-06T09:14:26;7.80;;;5.20;;
68680;SDS011;55836;49.858;6.756;2024-03-06T09:16:52;7.53;;;5.10;;
68680;SDS011;55836;49.858;6.756;2024-03-06T09:19:19;7.43;;;5.60;;
68680;SDS011;55836;49.858;6.756;2024-03-06T09:21:45;10.43;;;5.23;;
68680;SDS011;55836;49.858;6.756;2024-03-06T09:24:11;7.37;;;5.03;;
68680;SDS011;55836;49.858;6.756;2024-03-06T09:26:37;8.57;;;5.20;;
68680;SDS011;55836;49.858;6.756;2024-03-06T09:29:03;7.13;;;5.30;;
68680;SDS011;55836;49.858;6.756;2024-03-06T09:31:29;7.27;;;4.67;;
68680;SDS011;55836;49.858;6.756;2024-03-06T09:33:55;7.70;;;5.17;;
68680;SDS011;55836;49.858;6.756;2024-03-06T09:36:21;5.40;;;4.47;;
68680;SDS011;55836;49.858;6.756;2024-03-06T09:38:47;8.77;;;5.37;;
68680;SDS011;55836;49.858;6.756;2024-03-06T09:41:13;10.30;;;5.23;;
68680;SDS011;55836;49.858;6.756;2024-03-06T09:43:39;6.20;;;4.77;;
68680;SDS011;55836;49.858;6.756;2024-03-06T09:46:08;6.40;;;4.40;;
68680;SDS011;55836;49.858;6.756;2024-03-06T09:48:34;5.80;;;4.40;;
68680;SDS011;55836;49.858;6.756;2024-03-06T09:51:00;7.20;;;4.53;;
68680;SDS011;55836;49.858;6.756;2024-03-06T09:53:27;5.40;;;4.23;;
68680;SDS011;55836;49.858;6.756;2024-03-06T09:55:53;6.70;;;4.63;;
68680;SDS011;55836;49.858;6.756;2024-03-06T09:58:20;6.57;;;4.30;;
68680;SDS011;55836;49.858;6.756;2024-03-06T10:00:46;5.73;;;4.30;;
68680;SDS011;55836;49.858;6.756;2024-03-06T10:03:13;6.50;;;4.53;;
68680;SDS011;55836;49.858;6.756;2024-03-06T10:05:39;7.40;;;5.40;;
68680;SDS011;55836;49.858;6.756;2024-03-06T10:08:08;7.73;;;5.83;;
68680;SDS011;55836;49.858;6.756;2024-03-06T10:10:35;8.27;;;6.23;;
68680;SDS011;55836;49.858;6.756;2024-03-06T10:13:01;8.47;;;5.80;;
68680;SDS011;55836;49.858;6.756;2024-03-06T10:15:28;9.13;;;6.37;;
68680;SDS011;55836;49.858;6.756;2024-03-06T10:18:13;9.93;;;5.60;;
68680;SDS011;55836;49.858;6.756;2024-03-06T10:20:39;8.00;;;5.97;;
68680;SDS011;55836;49.858;6.756;2024-03-06T10:23:08;9.93;;;6.57;;
68680;SDS011;55836;49.858;6.756;2024-03-06T10:25:34;11.07;;;7.30;;
68680;SDS011;55836;49.858;6.756;2024-03-06T10:28:08;9.03;;;6.17;;
68680;SDS011;55836;49.858;6.756;2024-03-06T10:30:35;8.33;;;5.90;;
68680;SDS011;55836;49.858;6.756;2024-03-06T10:33:02;8.63;;;6.37;;
68680;SDS011;55836;49.858;6.756;2024-03-06T10:35:28;10.30;;;6.80;;
68680;SDS011;55836;49.858;6.756;2024-03-06T10:37:54;12.83;;;7.43;;
68680;SDS011;55836;49.858;6.756;2024-03-06T10:40:21;10.23;;;7.70;;
68680;SDS011;55836;49.858;6.756;2024-03-06T10:42:48;8.00;;;6.57;;
68680;SDS011;55836;49.858;6.756;2024-03-06T10:45:14;9.53;;;6.63;;
68680;SDS011;55836;49.858;6.756;2024-03-06T10:47:40;10.03;;;6.60;;
68680;SDS011;55836;49.858;6.756;2024-03-06T10:50:06;9.63;;;7.57;;
68680;SDS011;55836;49.858;6.756;2024-03-06T10:52:35;10.60;;;7.27;;
68680;SDS011;55836;49.858;6.756;2024-03-06T10:55:02;10.50;;;6.63;;
68680;SDS011;55836;49.858;6.756;2024-03-06T10:57:29;10.10;;;6.60;;
68680;SDS011;55836;49.858;6.756;2024-03-06T10:59:56;11.50;;;7.20;;
68680;SDS011;55836;49.858;6.756;2024-03-06T11:02:24;8.53;;;6.57;;
68680;SDS011;55836;49.858;6.756;2024-03-06T11:04:50;12.80;;;7.80;;
68680;SDS011;55836;49.858;6.756;2024-03-06T11:07:17;10.60;;;7.10;;
68680;SDS011;55836;49.858;6.756;2024-03-06T11:09:43;9.50;;;6.63;;
68680;SDS011;55836;49.858;6.756;2024-03-06T11:12:09;9.73;;;6.93;;
68680;SDS011;55836;49.858;6.756;2024-03-06T11:14:36;9.97;;;7.70;;
68680;SDS011;55836;49.858;6.756;2024-03-06T11:17:09;12.20;;;8.77;;
68680;SDS011;55836;49.858;6.756;2024-03-06T11:23:01;8.97;;;6.97;;
68680;SDS011;55836;49.858;6.756;2024-03-06T11:25:07;12.60;;;7.63;;
68680;SDS011;55836;49.858;6.756;2024-03-06T11:27:33;10.83;;;7.30;;
68680;SDS011;55836;49.858;6.756;2024-03-06T11:30:19;9.73;;;6.77;;
68680;SDS011;55836;49.858;6.756;2024-03-06T11:33:19;10.53;;;7.50;;
68680;SDS011;55836;49.858;6.756;2024-03-06T11:35:38;10.50;;;7.00;;
68680;SDS011;55836;49.858;6.756;2024-03-06T11:38:06;10.17;;;7.07;;
68680;SDS011;55836;49.858;6.756;2024-03-06T11:40:32;9.43;;;6.83;;
68680;SDS011;55836;49.858;6.756;2024-03-06T11:43:21;8.57;;;7.17;;
68680;SDS011;55836;49.858;6.756;2024-03-06T11:45:44;10.07;;;6.77;;
68680;SDS011;55836;49.858;6.756;2024-03-06T11:48:10;9.17;;;6.70;;
68680;SDS011;55836;49.858;6.756;2024-03-06T11:50:44;8.93;;;6.40;;
68680;SDS011;55836;49.858;6.756;2024-03-06T11:53:11;9.30;;;6.93;;
68680;SDS011;55836;49.858;6.756;2024-03-06T11:55:37;11.93;;;7.23;;
68680;SDS011;55836;49.858;6.756;2024-03-06T11:58:04;9.67;;;7.13;;
68680;SDS011;55836;49.858;6.756;2024-03-06T12:00:32;11.77;;;7.10;;
68680;SDS011;55836;49.858;6.756;2024-03-06T12:02:58;14.77;;;8.40;;
68680;SDS011;55836;49.858;6.756;2024-03-06T12:05:24;17.23;;;9.50;;
68680;SDS011;55836;49.858;6.756;2024-03-06T12:07:52;13.00;;;8.77;;
68680;SDS011;55836;49.858;6.756;2024-03-06T12:10:19;14.60;;;8.70;;
68680;SDS011;55836;49.858;6.756;2024-03-06T12:12:45;12.67;;;8.17;;
68680;SDS011;55836;49.858;6.756;2024-03-06T12:15:11;12.87;;;9.20;;
68680;SDS011;55836;49.858;6.756;2024-03-06T12:17:44;11.53;;;8.33;;
68680;SDS011;55836;49.858;6.756;2024-03-06T12:20:11;13.67;;;8.90;;
68680;SDS011;55836;49.858;6.756;2024-03-06T12:25:22;9.07;;;7.27;;
68680;SDS011;55836;49.858;6.756;2024-03-06T12:27:49;12.17;;;7.17;;
68680;SDS011;55836;49.858;6.756;2024-03-06T12:30:18;9.07;;;7.37;;
68680;SDS011;55836;49.858;6.756;2024-03-06T12:32:55;10.57;;;8.63;;
68680;SDS011;55836;49.858;6.756;2024-03-06T12:35:25;8.47;;;6.10;;
68680;SDS011;55836;49.858;6.756;2024-03-06T12:37:51;9.07;;;5.73;;
68680;SDS011;55836;49.858;6.756;2024-03-06T12:40:18;8.70;;;6.07;;
68680;SDS011;55836;49.858;6.756;2024-03-06T12:42:44;8.33;;;5.97;;
68680;SDS011;55836;49.858;6.756;2024-03-06T12:45:11;8.27;;;5.70;;
68680;SDS011;55836;49.858;6.756;2024-03-06T12:47:40;7.47;;;5.17;;
68680;SDS011;55836;49.858;6.756;2024-03-06T12:50:06;8.20;;;5.30;;
68680;SDS011;55836;49.858;6.756;2024-03-06T12:52:33;8.43;;;5.30;;
68680;SDS011;55836;49.858;6.756;2024-03-06T12:54:59;8.43;;;5.27;;
68680;SDS011;55836;49.858;6.756;2024-03-06T12:57:25;8.00;;;5.53;;
68680;SDS011;55836;49.858;6.756;2024-03-06T12:59:52;6.40;;;5.17;;
68680;SDS011;55836;49.858;6.756;2024-03-06T13:02:18;6.00;;;4.80;;
68680;SDS011;55836;49.858;6.756;2024-03-06T13:04:44;4.10;;;3.50;;
68680;SDS011;55836;49.858;6.756;2024-03-06T13:07:10;6.07;;;3.90;;
68680;SDS011;55836;49.858;6.756;2024-03-06T13:09:37;5.37;;;3.00;;
68680;SDS011;55836;49.858;6.756;2024-03-06T13:12:03;4.83;;;3.30;;
68680;SDS011;55836;49.858;6.756;2024-03-06T13:14:31;6.60;;;3.73;;
68680;SDS011;55836;49.858;6.756;2024-03-06T13:16:57;6.57;;;4.10;;
68680;SDS011;55836;49.858;6.756;2024-03-06T13:19:23;6.77;;;4.77;;
68680;SDS011;55836;49.858;6.756;2024-03-06T13:21:49;6.00;;;4.00;;
68680;SDS011;55836;49.858;6.756;2024-03-06T13:24:15;4.07;;;3.53;;
68680;SDS011;55836;49.858;6.756;2024-03-06T13:26:41;5.17;;;3.53;;
68680;SDS011;55836;49.858;6.756;2024-03-06T13:29:07;3.73;;;3.30;;
68680;SDS011;55836;49.858;6.756;2024-03-06T13:31:33;4.40;;;3.17;;
68680;SDS011;55836;49.858;6.756;2024-03-06T13:34:02;4.40;;;3.43;;
68680;SDS011;55836;49.858;6.756;2024-03-06T13:36:28;5.40;;;3.93;;
68680;SDS011;55836;49.858;6.756;2024-03-06T13:38:55;3.77;;;3.00;;
68680;SDS011;55836;49.858;6.756;2024-03-06T13:41:21;5.07;;;3.67;;
68680;SDS011;55836;49.858;6.756;2024-03-06T13:43:47;5.60;;;3.93;;
68680;SDS011;55836;49.858;6.756;2024-03-06T13:46:13;6.23;;;3.37;;
68680;SDS011;55836;49.858;6.756;2024-03-06T13:48:39;4.30;;;3.17;;
68680;SDS011;55836;49.858;6.756;2024-03-06T13:51:06;3.30;;;2.77;;
68680;SDS011;55836;49.858;6.756;2024-03-06T13:53:33;4.70;;;3.40;;
68680;SDS011;55836;49.858;6.756;2024-03-06T13:55:59;3.93;;;2.40;;
68680;SDS011;55836;49.858;6.756;2024-03-06T13:58:25;3.13;;;2.33;;
68680;SDS011;55836;49.858;6.756;2024-03-06T14:00:51;3.33;;;2.30;;
68680;SDS011;55836;49.858;6.756;2024-03-06T14:03:17;2.63;;;1.93;;
68680;SDS011;55836;49.858;6.756;2024-03-06T14:05:43;4.10;;;1.67;;
68680;SDS011;55836;49.858;6.756;2024-03-06T14:08:09;1.80;;;1.47;;
68680;SDS011;55836;49.858;6.756;2024-03-06T14:10:38;3.23;;;1.83;;
68680;SDS011;55836;49.858;6.756;2024-03-06T14:13:04;2.80;;;1.90;;
68680;SDS011;55836;49.858;6.756;2024-03-06T14:15:31;2.10;;;1.83;;
68680;SDS011;55836;49.858;6.756;2024-03-06T14:17:58;2.20;;;2.00;;
68680;SDS011;55836;49.858;6.756;2024-03-06T14:20:26;3.50;;;2.90;;
68680;SDS011;55836;49.858;6.756;2024-03-06T14:22:53;3.50;;;2.60;;
68680;SDS011;55836;49.858;6.756;2024-03-06T14:25:19;4.77;;;3.00;;
68680;SDS011;55836;49.858;6.756;2024-03-06T14:27:45;4.37;;;2.70;;
68680;SDS011;55836;49.858;6.756;2024-03-06T14:30:12;4.50;;;2.97;;
68680;SDS011;55836;49.858;6.756;2024-03-06T14:32:40;3.03;;;2.70;;
68680;SDS011;55836;49.858;6.756;2024-03-06T14:35:07;3.03;;;2.73;;
68680;SDS011;55836;49.858;6.756;2024-03-06T14:37:33;4.80;;;3.30;;
68680;SDS011;55836;49.858;6.756;2024-03-06T14:39:59;5.30;;;3.07;;
68680;SDS011;55836;49.858;6.756;2024-03-06T14:42:27;3.93;;;2.77;;
68680;SDS011;55836;49.858;6.756;2024-03-06T14:44:53;3.47;;;2.60;;
68680;SDS011;55836;49.858;6.756;2024-03-06T14:47:19;3.87;;;2.53;;